sensor_id;sensor_type;location;lat;lon;timestamp;P1;durP1;ratioP1;P2;durP2;ratioP2
37905;SDS011;23739;51.448;6.674;2022-10-31T00:02:10;16.75;;;9.25;;
37905;SDS011;23739;51.448;6.674;2022-10-31T00:04:36;16.10;;;8.57;;
37905;SDS011;23739;51.448;6.674;2022-10-31T00:07:02;13.30;;;9.05;;
37905;SDS011;23739;51.448;6.674;2022-10-31T00:09:27;18.58;;;9.90;;
37905;SDS011;23739;51.448;6.674;2022-10-31T00:11:53;13.50;;;8.45;;
37905;SDS011;23739;51.448;6.674;2022-10-31T00:14:19;14.35;;;7.93;;
37905;SDS011;23739;51.448;6.674;2022-10-31T00:16:45;17.25;;;10.30;;
37905;SDS011;23739;51.448;6.674;2022-10-31T00:19:10;18.02;;;8.77;;
37905;SDS011;23739;51.448;6.674;2022-10-31T00:21:36;18.08;;;10.45;;
37905;SDS011;23739;51.448;6.674;2022-10-31T00:24:02;18.80;;;8.88;;
37905;SDS011;23739;51.448;6.674;2022-10-31T00:26:29;16.58;;;9.15;;
37905;SDS011;23739;51.448;6.674;2022-10-31T00:28:55;16.30;;;11.02;;
37905;SDS011;23739;51.448;6.674;2022-10-31T00:31:22;21.45;;;10.20;;
37905;SDS011;23739;51.448;6.674;2022-10-31T00:33:48;14.38;;;8.73;;
37905;SDS011;23739;51.448;6.674;2022-10-31T00:36:15;16.02;;;8.52;;
37905;SDS011;23739;51.448;6.674;2022-10-31T00:38:42;15.10;;;8.43;;
37905;SDS011;23739;51.448;6.674;2022-10-31T00:41:09;14.40;;;8.43;;
37905;SDS011;23739;51.448;6.674;2022-10-31T00:43:36;13.02;;;8.88;;
37905;SDS011;23739;51.448;6.674;2022-10-31T00:46:01;15.75;;;9.05;;
37905;SDS011;23739;51.448;6.674;2022-10-31T00:48:28;15.25;;;8.65;;
37905;SDS011;23739;51.448;6.674;2022-10-31T00:50:53;14.35;;;9.05;;
37905;SDS011;23739;51.448;6.674;2022-10-31T00:53:19;18.67;;;9.43;;
37905;SDS011;23739;51.448;6.674;2022-10-31T00:55:45;16.27;;;9.40;;
37905;SDS011;23739;51.448;6.674;2022-10-31T00:58:11;12.02;;;8.63;;
37905;SDS011;23739;51.448;6.674;2022-10-31T01:00:37;16.67;;;9.60;;
37905;SDS011;23739;51.448;6.674;2022-10-31T01:03:03;12.68;;;8.13;;
37905;SDS011;23739;51.448;6.674;2022-10-31T01:05:29;17.58;;;8.73;;
37905;SDS011;23739;51.448;6.674;2022-10-31T01:07:55;13.85;;;7.97;;
37905;SDS011;23739;51.448;6.674;2022-10-31T01:10:20;15.18;;;8.90;;
37905;SDS011;23739;51.448;6.674;2022-10-31T01:12:47;12.75;;;8.02;;
37905;SDS011;23739;51.448;6.674;2022-10-31T01:15:14;12.68;;;7.80;;
37905;SDS011;23739;51.448;6.674;2022-10-31T01:17:42;12.93;;;7.93;;
37905;SDS011;23739;51.448;6.674;2022-10-31T01:20:08;14.25;;;8.10;;
37905;SDS011;23739;51.448;6.674;2022-10-31T01:22:35;11.48;;;8.18;;
37905;SDS011;23739;51.448;6.674;2022-10-31T01:25:01;13.93;;;8.73;;
37905;SDS011;23739;51.448;6.674;2022-10-31T01:27:27;14.93;;;9.35;;
37905;SDS011;23739;51.448;6.674;2022-10-31T01:29:52;18.40;;;9.65;;
37905;SDS011;23739;51.448;6.674;2022-10-31T01:32:18;14.55;;;8.98;;
37905;SDS011;23739;51.448;6.674;2022-10-31T01:34:44;13.50;;;9.65;;
37905;SDS011;23739;51.448;6.674;2022-10-31T01:37:10;16.30;;;9.63;;
37905;SDS011;23739;51.448;6.674;2022-10-31T01:39:35;11.98;;;9.05;;
37905;SDS011;23739;51.448;6.674;2022-10-31T01:42:02;18.67;;;10.52;;
37905;SDS011;23739;51.448;6.674;2022-10-31T01:49:56;16.98;;;10.65;;
37905;SDS011;23739;51.448;6.674;2022-10-31T01:52:27;18.95;;;10.45;;
37905;SDS011;23739;51.448;6.674;2022-10-31T01:55:02;17.17;;;11.20;;
37905;SDS011;23739;51.448;6.674;2022-10-31T01:57:31;14.10;;;10.02;;
37905;SDS011;23739;51.448;6.674;2022-10-31T02:00:00;15.07;;;9.07;;
37905;SDS011;23739;51.448;6.674;2022-10-31T02:02:29;14.65;;;9.65;;
37905;SDS011;23739;51.448;6.674;2022-10-31T02:04:56;15.55;;;10.05;;
37905;SDS011;23739;51.448;6.674;2022-10-31T02:07:30;13.50;;;8.98;;
37905;SDS011;23739;51.448;6.674;2022-10-31T02:10:02;12.80;;;9.10;;
37905;SDS011;23739;51.448;6.674;2022-10-31T02:12:29;13.73;;;8.82;;
37905;SDS011;23739;51.448;6.674;2022-10-31T02:14:56;15.68;;;8.45;;
37905;SDS011;23739;51.448;6.674;2022-10-31T02:17:22;16.52;;;8.88;;
37905;SDS011;23739;51.448;6.674;2022-10-31T02:30:31;15.13;;;8.65;;
37905;SDS011;23739;51.448;6.674;2022-10-31T02:34:05;16.33;;;9.43;;
37905;SDS011;23739;51.448;6.674;2022-10-31T02:36:39;18.08;;;10.70;;
37905;SDS011;23739;51.448;6.674;2022-10-31T02:39:12;16.38;;;9.85;;
37905;SDS011;23739;51.448;6.674;2022-10-31T02:47:15;15.13;;;8.43;;
37905;SDS011;23739;51.448;6.674;2022-10-31T02:49:57;16.92;;;8.90;;
37905;SDS011;23739;51.448;6.674;2022-10-31T02:52:31;13.45;;;9.20;;
37905;SDS011;23739;51.448;6.674;2022-10-31T02:54:57;11.80;;;8.48;;
37905;SDS011;23739;51.448;6.674;2022-10-31T02:57:30;13.38;;;9.68;;
37905;SDS011;23739;51.448;6.674;2022-10-31T03:00:04;22.35;;;8.77;;
37905;SDS011;23739;51.448;6.674;2022-10-31T03:10:41;19.52;;;10.23;;
37905;SDS011;23739;51.448;6.674;2022-10-31T03:18:57;13.50;;;8.90;;
37905;SDS011;23739;51.448;6.674;2022-10-31T03:21:30;14.20;;;9.88;;
37905;SDS011;23739;51.448;6.674;2022-10-31T03:26:25;14.93;;;9.60;;
37905;SDS011;23739;51.448;6.674;2022-10-31T03:28:59;19.10;;;10.05;;
37905;SDS011;23739;51.448;6.674;2022-10-31T03:31:40;21.42;;;10.90;;
37905;SDS011;23739;51.448;6.674;2022-10-31T03:34:17;15.45;;;9.50;;
37905;SDS011;23739;51.448;6.674;2022-10-31T03:36:44;13.98;;;9.10;;
37905;SDS011;23739;51.448;6.674;2022-10-31T03:39:13;14.75;;;9.02;;
37905;SDS011;23739;51.448;6.674;2022-10-31T03:41:42;16.48;;;10.30;;
37905;SDS011;23739;51.448;6.674;2022-10-31T03:44:12;14.45;;;9.15;;
37905;SDS011;23739;51.448;6.674;2022-10-31T03:46:41;13.68;;;8.45;;
37905;SDS011;23739;51.448;6.674;2022-10-31T03:49:08;14.65;;;9.55;;
37905;SDS011;23739;51.448;6.674;2022-10-31T03:56:58;17.98;;;10.38;;
37905;SDS011;23739;51.448;6.674;2022-10-31T03:59:27;11.93;;;7.90;;
37905;SDS011;23739;51.448;6.674;2022-10-31T04:01:59;14.95;;;8.65;;
37905;SDS011;23739;51.448;6.674;2022-10-31T04:04:32;15.02;;;8.60;;
37905;SDS011;23739;51.448;6.674;2022-10-31T04:06:59;14.23;;;9.32;;
37905;SDS011;23739;51.448;6.674;2022-10-31T04:09:27;16.85;;;10.00;;
37905;SDS011;23739;51.448;6.674;2022-10-31T04:11:56;18.90;;;9.32;;
37905;SDS011;23739;51.448;6.674;2022-10-31T04:14:26;17.73;;;9.05;;
37905;SDS011;23739;51.448;6.674;2022-10-31T04:16:54;16.85;;;10.30;;
37905;SDS011;23739;51.448;6.674;2022-10-31T04:19:20;15.18;;;8.95;;
37905;SDS011;23739;51.448;6.674;2022-10-31T04:21:46;15.32;;;8.00;;
37905;SDS011;23739;51.448;6.674;2022-10-31T04:24:11;15.40;;;9.10;;
37905;SDS011;23739;51.448;6.674;2022-10-31T04:26:37;17.92;;;9.02;;
37905;SDS011;23739;51.448;6.674;2022-10-31T04:29:03;16.40;;;9.23;;
37905;SDS011;23739;51.448;6.674;2022-10-31T04:31:28;19.63;;;9.70;;
37905;SDS011;23739;51.448;6.674;2022-10-31T04:33:54;14.48;;;9.25;;
37905;SDS011;23739;51.448;6.674;2022-10-31T04:36:19;16.83;;;9.73;;
37905;SDS011;23739;51.448;6.674;2022-10-31T04:38:45;17.17;;;10.07;;
37905;SDS011;23739;51.448;6.674;2022-10-31T04:41:11;17.67;;;9.50;;
37905;SDS011;23739;51.448;6.674;2022-10-31T04:43:37;22.75;;;11.00;;
37905;SDS011;23739;51.448;6.674;2022-10-31T04:46:03;18.10;;;10.88;;
37905;SDS011;23739;51.448;6.674;2022-10-31T04:48:29;21.00;;;12.13;;
37905;SDS011;23739;51.448;6.674;2022-10-31T04:50:59;19.08;;;10.70;;
37905;SDS011;23739;51.448;6.674;2022-10-31T04:53:25;22.90;;;11.18;;
37905;SDS011;23739;51.448;6.674;2022-10-31T04:55:51;23.98;;;11.15;;
37905;SDS011;23739;51.448;6.674;2022-10-31T04:58:16;20.23;;;10.05;;
37905;SDS011;23739;51.448;6.674;2022-10-31T05:00:42;18.02;;;9.60;;
37905;SDS011;23739;51.448;6.674;2022-10-31T05:03:08;12.77;;;8.65;;
37905;SDS011;23739;51.448;6.674;2022-10-31T05:05:33;16.63;;;9.13;;
37905;SDS011;23739;51.448;6.674;2022-10-31T05:07:59;15.60;;;9.90;;
37905;SDS011;23739;51.448;6.674;2022-10-31T05:10:27;16.52;;;9.43;;
37905;SDS011;23739;51.448;6.674;2022-10-31T05:12:58;12.05;;;8.57;;
37905;SDS011;23739;51.448;6.674;2022-10-31T05:15:26;14.30;;;8.95;;
37905;SDS011;23739;51.448;6.674;2022-10-31T05:17:52;16.58;;;8.95;;
37905;SDS011;23739;51.448;6.674;2022-10-31T05:20:20;15.55;;;9.90;;
37905;SDS011;23739;51.448;6.674;2022-10-31T05:22:48;22.08;;;10.15;;
37905;SDS011;23739;51.448;6.674;2022-10-31T05:25:15;16.05;;;9.27;;
37905;SDS011;23739;51.448;6.674;2022-10-31T05:27:43;17.92;;;9.60;;
37905;SDS011;23739;51.448;6.674;2022-10-31T05:30:11;13.18;;;8.93;;
37905;SDS011;23739;51.448;6.674;2022-10-31T05:32:39;13.13;;;8.52;;
37905;SDS011;23739;51.448;6.674;2022-10-31T05:35:06;16.92;;;9.77;;
37905;SDS011;23739;51.448;6.674;2022-10-31T05:37:33;20.98;;;9.40;;
37905;SDS011;23739;51.448;6.674;2022-10-31T05:40:00;12.75;;;8.35;;
37905;SDS011;23739;51.448;6.674;2022-10-31T05:42:27;13.27;;;8.80;;
37905;SDS011;23739;51.448;6.674;2022-10-31T05:44:53;16.08;;;7.88;;
37905;SDS011;23739;51.448;6.674;2022-10-31T05:47:19;14.88;;;8.68;;
37905;SDS011;23739;51.448;6.674;2022-10-31T05:49:44;19.50;;;9.10;;
37905;SDS011;23739;51.448;6.674;2022-10-31T05:52:10;14.70;;;9.18;;
37905;SDS011;23739;51.448;6.674;2022-10-31T05:54:36;16.25;;;9.18;;
37905;SDS011;23739;51.448;6.674;2022-10-31T05:57:02;13.55;;;7.22;;
37905;SDS011;23739;51.448;6.674;2022-10-31T05:59:27;21.08;;;8.85;;
37905;SDS011;23739;51.448;6.674;2022-10-31T06:01:53;13.82;;;8.77;;
37905;SDS011;23739;51.448;6.674;2022-10-31T06:04:19;11.85;;;8.13;;
37905;SDS011;23739;51.448;6.674;2022-10-31T06:06:44;12.23;;;7.03;;
37905;SDS011;23739;51.448;6.674;2022-10-31T06:09:10;13.15;;;7.97;;
37905;SDS011;23739;51.448;6.674;2022-10-31T06:11:36;18.25;;;8.32;;
37905;SDS011;23739;51.448;6.674;2022-10-31T06:14:02;14.98;;;7.55;;
37905;SDS011;23739;51.448;6.674;2022-10-31T06:16:28;14.13;;;7.30;;
37905;SDS011;23739;51.448;6.674;2022-10-31T06:18:54;8.52;;;7.03;;
37905;SDS011;23739;51.448;6.674;2022-10-31T06:21:19;12.80;;;7.78;;
37905;SDS011;23739;51.448;6.674;2022-10-31T06:23:45;15.27;;;7.80;;
37905;SDS011;23739;51.448;6.674;2022-10-31T06:26:11;11.43;;;7.15;;
37905;SDS011;23739;51.448;6.674;2022-10-31T06:28:36;15.23;;;8.88;;
37905;SDS011;23739;51.448;6.674;2022-10-31T06:31:02;14.35;;;8.63;;
37905;SDS011;23739;51.448;6.674;2022-10-31T06:33:28;14.52;;;9.25;;
37905;SDS011;23739;51.448;6.674;2022-10-31T06:35:54;15.60;;;9.52;;
37905;SDS011;23739;51.448;6.674;2022-10-31T06:38:19;17.27;;;8.55;;
37905;SDS011;23739;51.448;6.674;2022-10-31T06:40:45;12.32;;;7.50;;
37905;SDS011;23739;51.448;6.674;2022-10-31T06:43:11;14.10;;;8.70;;
37905;SDS011;23739;51.448;6.674;2022-10-31T06:45:37;12.75;;;8.13;;
37905;SDS011;23739;51.448;6.674;2022-10-31T06:48:03;15.73;;;7.80;;
37905;SDS011;23739;51.448;6.674;2022-10-31T06:50:29;15.77;;;9.27;;
37905;SDS011;23739;51.448;6.674;2022-10-31T06:52:56;15.98;;;8.63;;
37905;SDS011;23739;51.448;6.674;2022-10-31T06:55:23;14.55;;;8.93;;
37905;SDS011;23739;51.448;6.674;2022-10-31T06:57:50;20.83;;;11.05;;
37905;SDS011;23739;51.448;6.674;2022-10-31T07:00:17;16.25;;;8.77;;
37905;SDS011;23739;51.448;6.674;2022-10-31T07:02:43;16.73;;;10.52;;
37905;SDS011;23739;51.448;6.674;2022-10-31T07:05:09;19.10;;;10.20;;
37905;SDS011;23739;51.448;6.674;2022-10-31T07:07:34;18.70;;;10.32;;
37905;SDS011;23739;51.448;6.674;2022-10-31T07:13:22;17.05;;;9.30;;
37905;SDS011;23739;51.448;6.674;2022-10-31T07:15:58;16.30;;;8.35;;
37905;SDS011;23739;51.448;6.674;2022-10-31T07:18:25;12.85;;;8.40;;
37905;SDS011;23739;51.448;6.674;2022-10-31T07:20:51;17.60;;;9.38;;
37905;SDS011;23739;51.448;6.674;2022-10-31T07:23:17;16.45;;;8.40;;
37905;SDS011;23739;51.448;6.674;2022-10-31T07:25:43;11.80;;;8.13;;
37905;SDS011;23739;51.448;6.674;2022-10-31T07:28:09;13.95;;;9.35;;
37905;SDS011;23739;51.448;6.674;2022-10-31T07:30:36;13.98;;;9.45;;
37905;SDS011;23739;51.448;6.674;2022-10-31T07:33:03;20.75;;;10.68;;
37905;SDS011;23739;51.448;6.674;2022-10-31T07:35:29;14.32;;;8.52;;
37905;SDS011;23739;51.448;6.674;2022-10-31T07:37:55;15.25;;;9.38;;
37905;SDS011;23739;51.448;6.674;2022-10-31T07:40:22;17.50;;;8.27;;
37905;SDS011;23739;51.448;6.674;2022-10-31T07:42:49;15.50;;;9.85;;
37905;SDS011;23739;51.448;6.674;2022-10-31T07:45:17;27.35;;;10.95;;
37905;SDS011;23739;51.448;6.674;2022-10-31T07:47:45;23.95;;;12.45;;
37905;SDS011;23739;51.448;6.674;2022-10-31T07:50:17;27.10;;;11.95;;
37905;SDS011;23739;51.448;6.674;2022-10-31T07:52:44;23.27;;;11.90;;
37905;SDS011;23739;51.448;6.674;2022-10-31T07:55:09;23.92;;;12.00;;
37905;SDS011;23739;51.448;6.674;2022-10-31T07:57:35;20.25;;;11.40;;
37905;SDS011;23739;51.448;6.674;2022-10-31T08:00:05;18.25;;;11.75;;
37905;SDS011;23739;51.448;6.674;2022-10-31T08:02:33;16.98;;;10.73;;
37905;SDS011;23739;51.448;6.674;2022-10-31T08:04:59;21.20;;;11.02;;
37905;SDS011;23739;51.448;6.674;2022-10-31T08:07:27;17.25;;;11.70;;
37905;SDS011;23739;51.448;6.674;2022-10-31T08:09:53;21.13;;;12.77;;
37905;SDS011;23739;51.448;6.674;2022-10-31T08:12:20;18.42;;;12.57;;
37905;SDS011;23739;51.448;6.674;2022-10-31T08:14:46;18.20;;;11.25;;
37905;SDS011;23739;51.448;6.674;2022-10-31T08:17:12;24.65;;;12.80;;
37905;SDS011;23739;51.448;6.674;2022-10-31T08:19:38;21.02;;;12.00;;
37905;SDS011;23739;51.448;6.674;2022-10-31T08:22:03;19.92;;;11.82;;
37905;SDS011;23739;51.448;6.674;2022-10-31T08:24:29;18.42;;;12.23;;
37905;SDS011;23739;51.448;6.674;2022-10-31T08:26:55;24.20;;;12.45;;
37905;SDS011;23739;51.448;6.674;2022-10-31T08:29:20;25.50;;;12.77;;
37905;SDS011;23739;51.448;6.674;2022-10-31T08:31:46;22.88;;;13.40;;
37905;SDS011;23739;51.448;6.674;2022-10-31T08:34:12;25.90;;;14.18;;
37905;SDS011;23739;51.448;6.674;2022-10-31T08:36:38;24.20;;;14.20;;
37905;SDS011;23739;51.448;6.674;2022-10-31T08:39:03;23.83;;;13.90;;
37905;SDS011;23739;51.448;6.674;2022-10-31T08:41:29;23.25;;;13.60;;
37905;SDS011;23739;51.448;6.674;2022-10-31T08:43:55;26.48;;;15.13;;
37905;SDS011;23739;51.448;6.674;2022-10-31T08:46:21;24.42;;;13.27;;
37905;SDS011;23739;51.448;6.674;2022-10-31T08:48:48;25.65;;;14.48;;
37905;SDS011;23739;51.448;6.674;2022-10-31T08:51:15;24.48;;;13.00;;
37905;SDS011;23739;51.448;6.674;2022-10-31T08:53:42;22.63;;;14.43;;
37905;SDS011;23739;51.448;6.674;2022-10-31T08:56:08;23.50;;;14.07;;
37905;SDS011;23739;51.448;6.674;2022-10-31T08:58:33;28.42;;;14.45;;
37905;SDS011;23739;51.448;6.674;2022-10-31T09:01:00;20.35;;;13.25;;
37905;SDS011;23739;51.448;6.674;2022-10-31T09:03:27;31.55;;;15.07;;
37905;SDS011;23739;51.448;6.674;2022-10-31T09:05:55;28.02;;;16.00;;
37905;SDS011;23739;51.448;6.674;2022-10-31T09:08:25;29.00;;;15.80;;
37905;SDS011;23739;51.448;6.674;2022-10-31T09:10:51;28.20;;;14.68;;
37905;SDS011;23739;51.448;6.674;2022-10-31T09:13:18;28.98;;;15.13;;
37905;SDS011;23739;51.448;6.674;2022-10-31T09:15:45;33.80;;;15.77;;
37905;SDS011;23739;51.448;6.674;2022-10-31T09:18:12;31.15;;;15.48;;
37905;SDS011;23739;51.448;6.674;2022-10-31T09:20:40;29.48;;;17.08;;
37905;SDS011;23739;51.448;6.674;2022-10-31T09:23:14;29.80;;;15.35;;
37905;SDS011;23739;51.448;6.674;2022-10-31T09:25:43;24.40;;;16.20;;
37905;SDS011;23739;51.448;6.674;2022-10-31T09:28:10;28.20;;;15.18;;
37905;SDS011;23739;51.448;6.674;2022-10-31T09:30:37;26.73;;;13.93;;
37905;SDS011;23739;51.448;6.674;2022-10-31T09:33:10;25.42;;;14.45;;
37905;SDS011;23739;51.448;6.674;2022-10-31T09:35:37;24.95;;;14.88;;
37905;SDS011;23739;51.448;6.674;2022-10-31T09:38:05;26.45;;;14.88;;
37905;SDS011;23739;51.448;6.674;2022-10-31T09:40:40;27.15;;;15.07;;
37905;SDS011;23739;51.448;6.674;2022-10-31T09:51:13;22.73;;;14.48;;
37905;SDS011;23739;51.448;6.674;2022-10-31T09:53:54;51.45;;;23.05;;
37905;SDS011;23739;51.448;6.674;2022-10-31T09:56:40;43.53;;;21.73;;
37905;SDS011;23739;51.448;6.674;2022-10-31T09:59:30;29.67;;;14.88;;
37905;SDS011;23739;51.448;6.674;2022-10-31T10:02:00;32.90;;;14.45;;
37905;SDS011;23739;51.448;6.674;2022-10-31T10:07:25;25.85;;;14.63;;
37905;SDS011;23739;51.448;6.674;2022-10-31T10:09:59;32.10;;;15.57;;
37905;SDS011;23739;51.448;6.674;2022-10-31T10:12:36;27.70;;;14.18;;
37905;SDS011;23739;51.448;6.674;2022-10-31T10:26:41;32.58;;;17.50;;
37905;SDS011;23739;51.448;6.674;2022-10-31T10:32:29;30.45;;;16.77;;
37905;SDS011;23739;51.448;6.674;2022-10-31T10:35:02;30.55;;;15.32;;
37905;SDS011;23739;51.448;6.674;2022-10-31T10:37:52;28.63;;;14.60;;
37905;SDS011;23739;51.448;6.674;2022-10-31T10:40:42;23.75;;;13.13;;
37905;SDS011;23739;51.448;6.674;2022-10-31T10:54:40;31.70;;;14.05;;
37905;SDS011;23739;51.448;6.674;2022-10-31T10:59:45;26.23;;;14.93;;
37905;SDS011;23739;51.448;6.674;2022-10-31T11:02:24;30.42;;;16.40;;
37905;SDS011;23739;51.448;6.674;2022-10-31T11:04:53;30.10;;;17.02;;
37905;SDS011;23739;51.448;6.674;2022-10-31T11:07:22;32.67;;;14.95;;
37905;SDS011;23739;51.448;6.674;2022-10-31T11:09:48;29.20;;;15.52;;
37905;SDS011;23739;51.448;6.674;2022-10-31T11:12:19;35.72;;;19.02;;
37905;SDS011;23739;51.448;6.674;2022-10-31T11:14:52;30.95;;;16.40;;
37905;SDS011;23739;51.448;6.674;2022-10-31T11:22:37;32.72;;;18.15;;
37905;SDS011;23739;51.448;6.674;2022-10-31T11:25:47;30.73;;;16.55;;
37905;SDS011;23739;51.448;6.674;2022-10-31T11:27:59;36.85;;;17.30;;
37905;SDS011;23739;51.448;6.674;2022-10-31T11:30:25;35.85;;;16.58;;
37905;SDS011;23739;51.448;6.674;2022-10-31T11:32:51;30.20;;;17.15;;
37905;SDS011;23739;51.448;6.674;2022-10-31T11:35:18;36.95;;;16.27;;
37905;SDS011;23739;51.448;6.674;2022-10-31T11:37:47;24.60;;;14.93;;
37905;SDS011;23739;51.448;6.674;2022-10-31T11:40:22;36.67;;;18.73;;
37905;SDS011;23739;51.448;6.674;2022-10-31T11:42:50;26.67;;;15.30;;
37905;SDS011;23739;51.448;6.674;2022-10-31T11:45:27;29.15;;;16.10;;
37905;SDS011;23739;51.448;6.674;2022-10-31T11:47:58;27.83;;;15.55;;
37905;SDS011;23739;51.448;6.674;2022-10-31T11:53:03;23.58;;;13.40;;
37905;SDS011;23739;51.448;6.674;2022-10-31T11:55:40;27.77;;;13.32;;
37905;SDS011;23739;51.448;6.674;2022-10-31T11:58:20;27.70;;;11.68;;
37905;SDS011;23739;51.448;6.674;2022-10-31T12:00:49;21.98;;;12.18;;
37905;SDS011;23739;51.448;6.674;2022-10-31T12:08:28;23.60;;;11.95;;
37905;SDS011;23739;51.448;6.674;2022-10-31T12:11:06;22.75;;;10.95;;
37905;SDS011;23739;51.448;6.674;2022-10-31T12:16:32;23.35;;;10.00;;
37905;SDS011;23739;51.448;6.674;2022-10-31T12:30:15;19.35;;;10.95;;
37905;SDS011;23739;51.448;6.674;2022-10-31T12:35:33;18.85;;;10.23;;
37905;SDS011;23739;51.448;6.674;2022-10-31T12:41:36;16.52;;;8.88;;
37905;SDS011;23739;51.448;6.674;2022-10-31T12:46:29;18.05;;;9.68;;
37905;SDS011;23739;51.448;6.674;2022-10-31T12:57:47;17.65;;;8.07;;
37905;SDS011;23739;51.448;6.674;2022-10-31T13:00:18;15.68;;;9.07;;
37905;SDS011;23739;51.448;6.674;2022-10-31T13:03:13;20.70;;;9.40;;
37905;SDS011;23739;51.448;6.674;2022-10-31T13:05:48;15.45;;;7.10;;
37905;SDS011;23739;51.448;6.674;2022-10-31T13:09:01;12.35;;;7.05;;
37905;SDS011;23739;51.448;6.674;2022-10-31T13:11:28;17.92;;;7.53;;
37905;SDS011;23739;51.448;6.674;2022-10-31T13:14:07;16.55;;;7.03;;
37905;SDS011;23739;51.448;6.674;2022-10-31T13:16:36;11.80;;;6.63;;
37905;SDS011;23739;51.448;6.674;2022-10-31T13:19:18;13.10;;;6.50;;
37905;SDS011;23739;51.448;6.674;2022-10-31T13:22:17;15.70;;;6.15;;
37905;SDS011;23739;51.448;6.674;2022-10-31T13:30:29;8.80;;;4.63;;
37905;SDS011;23739;51.448;6.674;2022-10-31T13:33:10;14.60;;;5.53;;
37905;SDS011;23739;51.448;6.674;2022-10-31T13:46:42;10.68;;;4.68;;
37905;SDS011;23739;51.448;6.674;2022-10-31T13:52:15;12.85;;;4.20;;
37905;SDS011;23739;51.448;6.674;2022-10-31T13:54:48;10.52;;;3.95;;
37905;SDS011;23739;51.448;6.674;2022-10-31T13:59:51;10.15;;;4.03;;
37905;SDS011;23739;51.448;6.674;2022-10-31T14:02:25;8.98;;;3.55;;
37905;SDS011;23739;51.448;6.674;2022-10-31T14:05:02;12.63;;;4.20;;
37905;SDS011;23739;51.448;6.674;2022-10-31T14:07:31;10.18;;;3.53;;
37905;SDS011;23739;51.448;6.674;2022-10-31T14:13:06;8.95;;;3.85;;
37905;SDS011;23739;51.448;6.674;2022-10-31T14:15:51;9.60;;;3.78;;
37905;SDS011;23739;51.448;6.674;2022-10-31T14:18:24;9.90;;;3.47;;
37905;SDS011;23739;51.448;6.674;2022-10-31T14:20:56;12.77;;;3.47;;
37905;SDS011;23739;51.448;6.674;2022-10-31T14:28:54;11.77;;;3.30;;
37905;SDS011;23739;51.448;6.674;2022-10-31T14:31:29;8.80;;;3.35;;
37905;SDS011;23739;51.448;6.674;2022-10-31T14:51:42;13.73;;;3.90;;
37905;SDS011;23739;51.448;6.674;2022-10-31T14:54:12;10.20;;;3.75;;
37905;SDS011;23739;51.448;6.674;2022-10-31T14:56:46;16.25;;;4.20;;
37905;SDS011;23739;51.448;6.674;2022-10-31T14:59:25;6.20;;;3.03;;
37905;SDS011;23739;51.448;6.674;2022-10-31T15:02:07;5.78;;;3.65;;
37905;SDS011;23739;51.448;6.674;2022-10-31T15:04:40;8.25;;;3.13;;
37905;SDS011;23739;51.448;6.674;2022-10-31T15:07:12;12.70;;;4.20;;
37905;SDS011;23739;51.448;6.674;2022-10-31T15:09:56;8.90;;;3.33;;
37905;SDS011;23739;51.448;6.674;2022-10-31T15:12:26;12.13;;;3.58;;
37905;SDS011;23739;51.448;6.674;2022-10-31T15:14:52;20.25;;;4.75;;
37905;SDS011;23739;51.448;6.674;2022-10-31T15:17:19;11.60;;;4.72;;
37905;SDS011;23739;51.448;6.674;2022-10-31T15:19:46;10.25;;;3.95;;
37905;SDS011;23739;51.448;6.674;2022-10-31T15:22:16;14.77;;;4.50;;
37905;SDS011;23739;51.448;6.674;2022-10-31T15:24:43;11.98;;;4.20;;
37905;SDS011;23739;51.448;6.674;2022-10-31T15:27:13;11.27;;;3.78;;
37905;SDS011;23739;51.448;6.674;2022-10-31T15:29:52;8.80;;;3.67;;
37905;SDS011;23739;51.448;6.674;2022-10-31T15:34:53;11.25;;;4.47;;
37905;SDS011;23739;51.448;6.674;2022-10-31T15:37:21;7.22;;;3.65;;
37905;SDS011;23739;51.448;6.674;2022-10-31T15:39:50;11.60;;;3.50;;
37905;SDS011;23739;51.448;6.674;2022-10-31T15:42:38;12.38;;;3.65;;
37905;SDS011;23739;51.448;6.674;2022-10-31T15:47:35;10.50;;;4.18;;
37905;SDS011;23739;51.448;6.674;2022-10-31T15:50:03;6.35;;;3.55;;
37905;SDS011;23739;51.448;6.674;2022-10-31T15:52:41;9.55;;;3.45;;
37905;SDS011;23739;51.448;6.674;2022-10-31T15:57:41;6.15;;;3.08;;
37905;SDS011;23739;51.448;6.674;2022-10-31T16:00:32;6.50;;;3.10;;
37905;SDS011;23739;51.448;6.674;2022-10-31T16:03:02;7.03;;;4.25;;
37905;SDS011;23739;51.448;6.674;2022-10-31T16:05:35;18.10;;;3.78;;
37905;SDS011;23739;51.448;6.674;2022-10-31T16:08:03;10.18;;;3.97;;
37905;SDS011;23739;51.448;6.674;2022-10-31T16:10:32;8.43;;;3.60;;
37905;SDS011;23739;51.448;6.674;2022-10-31T16:13:02;16.00;;;4.60;;
37905;SDS011;23739;51.448;6.674;2022-10-31T16:15:28;9.10;;;3.72;;
37905;SDS011;23739;51.448;6.674;2022-10-31T16:17:55;6.88;;;4.20;;
37905;SDS011;23739;51.448;6.674;2022-10-31T16:20:25;10.40;;;3.15;;
37905;SDS011;23739;51.448;6.674;2022-10-31T16:22:57;11.55;;;4.15;;
37905;SDS011;23739;51.448;6.674;2022-10-31T16:25:25;11.10;;;3.08;;
37905;SDS011;23739;51.448;6.674;2022-10-31T16:27:55;7.05;;;3.35;;
37905;SDS011;23739;51.448;6.674;2022-10-31T16:30:40;7.78;;;3.17;;
37905;SDS011;23739;51.448;6.674;2022-10-31T16:35:53;8.80;;;3.90;;
37905;SDS011;23739;51.448;6.674;2022-10-31T16:38:20;12.35;;;3.60;;
37905;SDS011;23739;51.448;6.674;2022-10-31T16:40:46;8.73;;;3.25;;
37905;SDS011;23739;51.448;6.674;2022-10-31T16:43:12;13.57;;;4.45;;
37905;SDS011;23739;51.448;6.674;2022-10-31T16:45:43;13.05;;;4.38;;
37905;SDS011;23739;51.448;6.674;2022-10-31T16:48:18;11.43;;;4.50;;
37905;SDS011;23739;51.448;6.674;2022-10-31T16:50:46;10.80;;;4.60;;
37905;SDS011;23739;51.448;6.674;2022-10-31T16:53:13;11.80;;;3.60;;
37905;SDS011;23739;51.448;6.674;2022-10-31T16:55:44;9.85;;;3.80;;
37905;SDS011;23739;51.448;6.674;2022-10-31T16:58:27;15.55;;;4.13;;
37905;SDS011;23739;51.448;6.674;2022-10-31T17:00:55;6.72;;;3.45;;
37905;SDS011;23739;51.448;6.674;2022-10-31T17:03:22;7.90;;;3.63;;
37905;SDS011;23739;51.448;6.674;2022-10-31T17:05:48;10.77;;;4.70;;
37905;SDS011;23739;51.448;6.674;2022-10-31T17:08:14;12.52;;;5.53;;
37905;SDS011;23739;51.448;6.674;2022-10-31T17:10:40;15.88;;;6.10;;
37905;SDS011;23739;51.448;6.674;2022-10-31T17:13:10;14.25;;;6.30;;
37905;SDS011;23739;51.448;6.674;2022-10-31T17:15:41;12.05;;;5.28;;
37905;SDS011;23739;51.448;6.674;2022-10-31T17:18:12;8.85;;;4.88;;
37905;SDS011;23739;51.448;6.674;2022-10-31T17:20:39;10.32;;;4.40;;
37905;SDS011;23739;51.448;6.674;2022-10-31T17:23:08;11.65;;;4.15;;
37905;SDS011;23739;51.448;6.674;2022-10-31T17:25:37;13.65;;;4.03;;
37905;SDS011;23739;51.448;6.674;2022-10-31T17:28:03;8.02;;;3.58;;
37905;SDS011;23739;51.448;6.674;2022-10-31T17:30:30;9.88;;;3.42;;
37905;SDS011;23739;51.448;6.674;2022-10-31T17:32:56;6.82;;;3.40;;
37905;SDS011;23739;51.448;6.674;2022-10-31T17:35:22;9.13;;;4.05;;
37905;SDS011;23739;51.448;6.674;2022-10-31T17:37:48;13.52;;;3.70;;
37905;SDS011;23739;51.448;6.674;2022-10-31T17:40:15;7.38;;;3.35;;
37905;SDS011;23739;51.448;6.674;2022-10-31T17:42:51;10.63;;;4.28;;
37905;SDS011;23739;51.448;6.674;2022-10-31T17:45:20;10.07;;;3.50;;
37905;SDS011;23739;51.448;6.674;2022-10-31T17:47:48;7.47;;;3.10;;
37905;SDS011;23739;51.448;6.674;2022-10-31T17:50:16;9.38;;;3.45;;
37905;SDS011;23739;51.448;6.674;2022-10-31T17:52:43;13.95;;;4.93;;
37905;SDS011;23739;51.448;6.674;2022-10-31T17:55:09;11.30;;;3.40;;